createdAt,value
2022-08-21T00:00:17.003Z,40.50
2022-08-21T00:03:08.108Z,40.59
2022-08-21T00:05:39.187Z,40.73
2022-08-21T00:08:06.216Z,40.87
2022-08-21T00:10:33.467Z,40.75
2022-08-21T00:13:01.783Z,40.80
2022-08-21T00:15:31.629Z,41.33
2022-08-21T00:17:59.885Z,41.00
2022-08-21T00:20:27.291Z,40.97
2022-08-21T00:22:54.222Z,40.85
2022-08-21T00:25:24.342Z,40.54
2022-08-21T00:27:53.629Z,40.49
2022-08-21T00:30:23.466Z,40.35
2022-08-21T00:32:52.031Z,40.50
2022-08-21T00:35:22.795Z,40.88
2022-08-21T00:37:49.712Z,40.82
2022-08-21T00:40:20.180Z,41.13
2022-08-21T00:42:50.092Z,41.24
2022-08-21T00:45:22.453Z,41.50
2022-08-21T00:47:50.826Z,41.34
2022-08-21T00:50:21.933Z,41.22
2022-08-21T00:52:52.089Z,40.98
2022-08-21T00:55:21.833Z,41.00
2022-08-21T00:57:53.045Z,41.01
2022-08-21T01:00:29.313Z,41.09
2022-08-21T01:03:01.064Z,41.27
2022-08-21T01:05:28.981Z,41.55
2022-08-21T01:07:58.037Z,41.47
2022-08-21T01:10:25.489Z,41.52
2022-08-21T01:12:56.128Z,41.60
2022-08-21T01:15:25.470Z,41.62
2022-08-21T01:17:52.306Z,41.77
2022-08-21T01:20:19.065Z,41.69
2022-08-21T01:22:46.036Z,41.65
2022-08-21T01:25:16.034Z,41.91
2022-08-21T01:27:43.478Z,41.87
2022-08-21T01:30:15.699Z,42.25
2022-08-21T01:32:42.949Z,42.11
2022-08-21T01:35:12.834Z,42.35
2022-08-21T01:37:40.309Z,42.74
2022-08-21T01:40:09.053Z,42.94
2022-08-21T01:42:36.364Z,42.93
2022-08-21T01:45:04.642Z,42.76
2022-08-21T01:47:31.510Z,42.92
2022-08-21T01:49:58.225Z,43.38
2022-08-21T01:52:25.000Z,43.85
2022-08-21T01:54:55.719Z,44.09
2022-08-21T01:57:26.366Z,44.25
2022-08-21T01:59:53.637Z,44.63
2022-08-21T02:02:20.379Z,44.71
2022-08-21T02:04:47.131Z,44.50
2022-08-21T02:07:13.945Z,44.59
2022-08-21T02:09:43.040Z,45.15
2022-08-21T02:12:12.097Z,44.86
2022-08-21T02:14:39.177Z,44.64
2022-08-21T02:17:09.270Z,45.20
2022-08-21T02:19:40.241Z,45.44
2022-08-21T02:22:11.202Z,45.02
2022-08-21T02:24:54.677Z,44.69
2022-08-21T02:27:27.233Z,44.10
2022-08-21T02:29:56.816Z,43.98
2022-08-21T02:32:23.558Z,44.07
2022-08-21T02:34:50.759Z,43.56
2022-08-21T02:37:18.073Z,43.62
2022-08-21T02:39:44.829Z,43.49
2022-08-21T02:42:11.677Z,43.27
2022-08-21T02:44:38.395Z,43.47
2022-08-21T02:47:05.372Z,44.23
2022-08-21T02:49:32.022Z,44.18
2022-08-21T02:51:58.728Z,42.94
2022-08-21T02:54:25.662Z,42.68
2022-08-21T02:56:52.429Z,42.71
2022-08-21T02:59:19.134Z,42.61
2022-08-21T03:01:45.903Z,42.45
2022-08-21T03:04:12.607Z,42.51
2022-08-21T03:06:39.390Z,42.77
2022-08-21T03:09:06.166Z,42.75
2022-08-21T03:11:34.291Z,42.21
2022-08-21T03:14:01.119Z,42.70
2022-08-21T03:16:30.924Z,43.00
2022-08-21T03:19:00.634Z,43.04
2022-08-21T03:21:27.359Z,42.94
2022-08-21T03:23:55.101Z,43.18
2022-08-21T03:26:22.293Z,42.87
2022-08-21T03:28:49.795Z,42.93
2022-08-21T03:31:16.906Z,42.97
2022-08-21T03:33:43.631Z,43.14
2022-08-21T03:36:11.332Z,42.84
2022-08-21T03:38:38.765Z,42.78
2022-08-21T03:41:06.451Z,42.84
2022-08-21T03:43:35.788Z,42.97
2022-08-21T03:46:04.454Z,42.75
2022-08-21T03:48:31.679Z,42.18
2022-08-21T03:50:58.657Z,42.34
2022-08-21T03:53:26.107Z,42.48
2022-08-21T03:55:53.673Z,42.25
2022-08-21T03:58:24.402Z,42.26
2022-08-21T04:00:53.789Z,42.61
2022-08-21T04:03:21.045Z,42.63
2022-08-21T04:05:47.804Z,42.55
2022-08-21T04:08:18.913Z,42.53
2022-08-21T04:10:54.845Z,42.50
2022-08-21T04:13:22.080Z,42.60
2022-08-21T04:15:49.314Z,42.68
2022-08-21T04:18:16.603Z,42.91
2022-08-21T04:20:50.131Z,42.63
2022-08-21T04:23:23.554Z,42.87
2022-08-21T04:25:53.151Z,43.26
2022-08-21T04:28:20.617Z,44.13
2022-08-21T04:30:47.923Z,44.64
2022-08-21T04:33:14.644Z,44.62
2022-08-21T04:35:42.971Z,45.19
2022-08-21T04:38:10.177Z,45.47
2022-08-21T04:40:37.501Z,46.09
2022-08-21T04:43:10.263Z,45.78
2022-08-21T04:45:43.006Z,46.43
2022-08-21T04:48:14.198Z,46.19
2022-08-21T04:50:50.611Z,46.15
2022-08-21T04:53:29.376Z,46.21
2022-08-21T04:55:58.655Z,45.81
2022-08-21T04:58:27.892Z,46.35
2022-08-21T05:00:58.807Z,46.26
2022-08-21T05:03:25.812Z,45.87
2022-08-21T05:05:52.830Z,45.64
2022-08-21T05:08:22.389Z,45.80
2022-08-21T05:10:49.147Z,45.71
2022-08-21T05:13:16.932Z,46.02
2022-08-21T05:15:43.617Z,46.00
2022-08-21T05:18:10.450Z,46.06
2022-08-21T05:20:38.295Z,46.16
2022-08-21T05:23:10.801Z,45.78
2022-08-21T05:25:37.627Z,46.03
2022-08-21T05:28:05.498Z,46.23
2022-08-21T05:30:33.902Z,46.15
2022-08-21T05:33:02.651Z,45.88
2022-08-21T05:35:30.072Z,46.43
2022-08-21T05:37:57.712Z,46.53
2022-08-21T05:40:24.791Z,46.38
2022-08-21T05:42:54.984Z,46.32
2022-08-21T05:45:34.655Z,46.28
2022-08-21T05:48:23.754Z,46.20
2022-08-21T05:50:52.724Z,45.85
2022-08-21T05:53:21.663Z,45.52
2022-08-21T05:55:48.808Z,45.54
2022-08-21T05:58:18.284Z,46.04
2022-08-21T06:00:48.114Z,45.97
2022-08-21T06:03:30.244Z,46.57
2022-08-21T06:05:57.384Z,45.89
2022-08-21T06:08:25.594Z,45.79
2022-08-21T06:10:53.974Z,46.64
2022-08-21T06:13:21.826Z,45.68
2022-08-21T06:15:48.854Z,45.40
2022-08-21T06:18:15.935Z,45.18
2022-08-21T06:20:42.835Z,45.25
2022-08-21T06:23:10.259Z,44.97
2022-08-21T06:25:37.088Z,44.97
2022-08-21T06:28:11.727Z,44.35
2022-08-21T06:30:40.094Z,43.76
2022-08-21T06:33:08.508Z,44.15
2022-08-21T06:35:36.110Z,43.97
2022-08-21T06:38:03.268Z,43.38
2022-08-21T06:40:31.049Z,42.14
2022-08-21T06:43:11.734Z,41.58
2022-08-21T06:45:42.576Z,42.74
2022-08-21T06:48:09.878Z,42.38
2022-08-21T06:50:37.325Z,42.11
2022-08-21T06:53:07.877Z,41.79
2022-08-21T06:55:34.805Z,41.61
2022-08-21T06:58:01.778Z,41.57
2022-08-21T07:00:28.953Z,41.09
2022-08-21T07:02:55.827Z,41.09
2022-08-21T07:05:22.741Z,40.62
2022-08-21T07:07:49.385Z,40.18
2022-08-21T07:10:22.189Z,39.99
2022-08-21T07:12:59.116Z,39.83
2022-08-21T07:15:28.716Z,39.77
2022-08-21T07:17:58.038Z,39.40
2022-08-21T07:20:24.807Z,39.62
2022-08-21T07:22:51.908Z,39.65
2022-08-21T07:25:18.839Z,39.50
2022-08-21T07:27:45.491Z,39.19
2022-08-21T07:30:12.361Z,38.98
2022-08-21T07:32:39.103Z,38.61
2022-08-21T07:35:06.077Z,38.58
2022-08-21T07:37:32.748Z,38.49
2022-08-21T07:39:59.476Z,38.75
2022-08-21T07:42:26.157Z,38.46
2022-08-21T07:44:56.369Z,38.29
2022-08-21T07:47:40.501Z,38.09
2022-08-21T07:50:12.190Z,37.77
2022-08-21T07:52:40.182Z,37.93
2022-08-21T07:55:08.746Z,38.61
2022-08-21T07:57:35.482Z,38.91
2022-08-21T08:00:04.339Z,38.86
2022-08-21T08:02:40.197Z,38.40
2022-08-21T08:05:12.002Z,38.25
2022-08-21T08:07:39.545Z,38.10
2022-08-21T08:10:07.951Z,37.92
2022-08-21T08:12:40.447Z,37.66
2022-08-21T08:15:13.092Z,37.85
2022-08-21T08:17:39.795Z,38.06
2022-08-21T08:20:09.021Z,37.58
2022-08-21T08:22:38.559Z,37.51
2022-08-21T08:25:09.405Z,37.98
2022-08-21T08:27:38.736Z,37.83
2022-08-21T08:30:07.098Z,37.65
2022-08-21T08:32:34.329Z,37.65
2022-08-21T08:35:01.134Z,37.86
2022-08-21T08:37:29.480Z,37.97
2022-08-21T08:40:04.602Z,37.59
2022-08-21T08:42:35.431Z,37.75
2022-08-21T08:45:16.868Z,38.08
2022-08-21T08:47:48.664Z,37.88
2022-08-21T08:50:28.890Z,37.30
2022-08-21T08:53:04.315Z,37.30
2022-08-21T08:55:40.275Z,37.50
2022-08-21T08:58:08.009Z,37.38
2022-08-21T09:00:34.909Z,36.56
2022-08-21T09:03:03.849Z,36.92
2022-08-21T09:05:39.263Z,36.79
2022-08-21T09:08:19.062Z,37.56
2022-08-21T09:11:04.033Z,37.77
2022-08-21T09:14:09.188Z,37.55
2022-08-21T09:16:51.168Z,37.38
2022-08-21T09:19:34.138Z,37.80
2022-08-21T09:22:29.482Z,37.36
2022-08-21T09:25:11.914Z,36.86
2022-08-21T09:27:39.241Z,36.41
2022-08-21T09:30:08.983Z,35.78
2022-08-21T09:32:38.643Z,35.89
2022-08-21T09:35:10.748Z,35.84
2022-08-21T09:38:03.873Z,35.19
2022-08-21T09:40:36.694Z,35.43
2022-08-21T09:43:05.716Z,34.42
2022-08-21T09:45:33.834Z,34.45
2022-08-21T09:48:22.348Z,34.42
2022-08-21T09:50:54.751Z,33.62
2022-08-21T09:53:33.725Z,33.89
2022-08-21T09:56:35.607Z,33.50
2022-08-21T09:59:02.333Z,32.66
2022-08-21T10:01:29.232Z,32.53
2022-08-21T10:04:09.009Z,33.32
2022-08-21T10:06:36.561Z,32.91
2022-08-21T10:09:15.098Z,33.23
2022-08-21T10:11:57.557Z,32.56
2022-08-21T10:14:42.109Z,33.80
2022-08-21T10:17:22.022Z,33.20
2022-08-21T10:20:12.950Z,33.63
2022-08-21T10:23:06.969Z,33.05
2022-08-21T10:25:33.583Z,33.42
2022-08-21T10:28:13.923Z,32.84
2022-08-21T10:31:16.778Z,32.63
2022-08-21T10:33:52.069Z,33.28
2022-08-21T10:36:37.891Z,32.76
2022-08-21T10:39:34.997Z,32.67
2022-08-21T10:42:28.439Z,33.50
2022-08-21T10:45:14.363Z,33.34
2022-08-21T10:47:57.323Z,33.43
2022-08-21T10:50:35.003Z,32.65
2022-08-21T10:53:27.315Z,31.32
2022-08-21T10:55:53.934Z,32.05
2022-08-21T10:58:29.330Z,32.26
2022-08-21T11:01:14.065Z,32.11
2022-08-21T11:03:45.453Z,32.61
2022-08-21T11:06:17.573Z,32.12
2022-08-21T11:08:47.935Z,32.26
2022-08-21T11:11:28.120Z,32.49
2022-08-21T11:14:32.629Z,31.38
2022-08-21T11:17:08.179Z,31.55
2022-08-21T11:19:48.291Z,31.00
2022-08-21T11:22:38.953Z,31.42
2022-08-21T11:25:19.687Z,31.57
2022-08-21T11:27:52.761Z,31.01
2022-08-21T11:30:19.696Z,30.25
2022-08-21T11:33:06.485Z,30.90
2022-08-21T11:35:48.237Z,30.91
2022-08-21T11:38:28.818Z,31.26
2022-08-21T11:41:09.794Z,30.57
2022-08-21T11:43:44.996Z,31.06
2022-08-21T11:46:26.788Z,31.02
2022-08-21T11:49:02.627Z,31.28
2022-08-21T11:51:40.098Z,31.08
2022-08-21T11:54:47.023Z,31.02
2022-08-21T11:57:51.799Z,30.94
2022-08-21T12:00:34.159Z,31.47
2022-08-21T12:03:14.649Z,30.72
2022-08-21T12:05:45.158Z,30.54
2022-08-21T12:08:27.651Z,30.59
2022-08-21T12:11:17.970Z,30.77
2022-08-21T12:13:58.637Z,30.95
2022-08-21T12:16:43.400Z,30.23
2022-08-21T12:19:14.430Z,30.51
2022-08-21T12:21:52.825Z,29.79
2022-08-21T12:24:34.182Z,29.80
2022-08-21T12:27:45.201Z,30.33
2022-08-21T12:30:36.527Z,30.36
2022-08-21T12:33:20.862Z,30.81
2022-08-21T12:35:50.531Z,30.73
2022-08-21T12:38:27.383Z,30.32
2022-08-21T12:41:21.098Z,30.36
2022-08-21T12:43:52.542Z,30.90
2022-08-21T12:46:23.032Z,32.16
2022-08-21T12:48:55.702Z,29.65
2022-08-21T12:51:35.298Z,28.56
2022-08-21T12:54:02.144Z,29.18
2022-08-21T12:56:32.339Z,29.25
2022-08-21T12:59:07.606Z,29.08
2022-08-21T13:01:56.041Z,29.12
2022-08-21T13:04:33.207Z,31.21
2022-08-21T13:07:01.115Z,29.41
2022-08-21T13:09:30.501Z,29.28
2022-08-21T13:11:58.506Z,31.12
2022-08-21T13:14:45.945Z,29.25
2022-08-21T13:17:25.760Z,30.25
2022-08-21T13:20:02.094Z,29.12
2022-08-21T13:22:35.005Z,28.78
2022-08-21T13:25:07.059Z,28.83
2022-08-21T13:27:35.234Z,29.55
2022-08-21T13:30:21.121Z,29.31
2022-08-21T13:32:52.021Z,29.57
2022-08-21T13:35:23.282Z,29.32
2022-08-21T13:37:52.829Z,28.53
2022-08-21T13:40:40.943Z,28.26
2022-08-21T13:43:14.296Z,28.58
2022-08-21T13:45:49.888Z,28.15
2022-08-21T13:48:17.042Z,27.85
2022-08-21T13:50:44.694Z,27.90
2022-08-21T13:53:45.666Z,27.25
2022-08-21T13:56:27.926Z,27.39
2022-08-21T13:58:56.871Z,27.00
2022-08-21T14:01:28.780Z,27.33
2022-08-21T14:04:19.004Z,27.02
2022-08-21T14:06:46.626Z,26.85
2022-08-21T14:09:43.772Z,26.70
2022-08-21T14:12:24.639Z,26.93
2022-08-21T14:14:52.627Z,26.53
2022-08-21T14:17:34.884Z,27.23
2022-08-21T14:20:04.117Z,27.15
2022-08-21T14:22:44.518Z,27.07
2022-08-21T14:25:20.214Z,27.96
2022-08-21T14:27:53.695Z,27.42
2022-08-21T14:30:30.870Z,25.74
2022-08-21T14:32:58.291Z,26.36
2022-08-21T14:35:25.329Z,25.35
2022-08-21T14:37:53.908Z,24.27
2022-08-21T14:40:23.438Z,24.30
2022-08-21T14:42:50.811Z,24.13
2022-08-21T14:45:24.918Z,23.50
2022-08-21T14:47:55.903Z,22.85
2022-08-21T14:50:22.869Z,22.53
2022-08-21T14:52:50.425Z,23.88
2022-08-21T14:55:19.039Z,21.63
2022-08-21T14:57:48.241Z,20.17
2022-08-21T15:00:18.561Z,19.55
2022-08-21T15:02:45.631Z,19.24
2022-08-21T15:05:15.425Z,17.44
2022-08-21T15:07:51.890Z,16.90
2022-08-21T15:10:18.690Z,17.21
2022-08-21T15:12:45.450Z,16.31
2022-08-21T15:15:12.521Z,16.06
2022-08-21T15:17:48.187Z,15.61
2022-08-21T15:20:15.917Z,15.19
2022-08-21T15:22:47.729Z,15.80
2022-08-21T15:25:15.004Z,16.33
2022-08-21T15:27:41.731Z,16.96
2022-08-21T15:30:08.856Z,18.40
2022-08-21T15:32:35.480Z,19.92
2022-08-21T15:35:03.175Z,21.16
2022-08-21T15:37:30.486Z,22.38
2022-08-21T15:39:57.422Z,23.20
2022-08-21T15:42:27.556Z,23.56
2022-08-21T15:44:55.617Z,23.55
2022-08-21T15:47:26.145Z,23.13
2022-08-21T15:49:52.790Z,23.66
2022-08-21T15:52:21.724Z,24.21
2022-08-21T15:54:49.110Z,25.49
2022-08-21T15:57:19.808Z,25.54
2022-08-21T15:59:50.127Z,25.52
2022-08-21T16:02:29.978Z,25.91
2022-08-21T16:04:57.993Z,25.62
2022-08-21T16:07:24.901Z,25.76
2022-08-21T16:09:51.645Z,25.68
2022-08-21T16:12:24.426Z,26.17
2022-08-21T16:14:53.231Z,25.89
2022-08-21T16:17:21.853Z,25.87
2022-08-21T16:19:48.605Z,26.99
2022-08-21T16:22:15.237Z,26.53
2022-08-21T16:24:41.934Z,26.09
2022-08-21T16:27:09.184Z,26.41
2022-08-21T16:29:37.715Z,25.81
2022-08-21T16:32:07.921Z,26.72
2022-08-21T16:34:35.697Z,26.02
2022-08-21T16:37:02.498Z,26.33
2022-08-21T16:39:29.370Z,26.10
2022-08-21T16:41:56.209Z,26.57
2022-08-21T16:44:23.142Z,26.18
2022-08-21T16:46:50.197Z,26.30
2022-08-21T16:49:17.215Z,26.26
2022-08-21T16:51:43.993Z,26.40
2022-08-21T16:54:12.016Z,26.73
2022-08-21T16:56:42.054Z,26.49
2022-08-21T16:59:12.604Z,26.38
2022-08-21T17:01:39.746Z,26.83
2022-08-21T17:04:06.612Z,26.48
2022-08-21T17:06:33.620Z,26.15
2022-08-21T17:09:04.181Z,26.57
2022-08-21T17:11:38.495Z,26.67
2022-08-21T17:14:09.308Z,27.06
2022-08-21T17:16:37.412Z,26.66
2022-08-21T17:19:04.697Z,26.87
2022-08-21T17:21:31.611Z,26.39
2022-08-21T17:23:58.547Z,26.59
2022-08-21T17:26:25.976Z,26.54
2022-08-21T17:28:54.857Z,27.01
2022-08-21T17:31:22.125Z,27.13
2022-08-21T17:33:52.854Z,27.23
2022-08-21T17:36:22.297Z,27.44
2022-08-21T17:38:49.508Z,27.30
2022-08-21T17:41:17.400Z,27.21
2022-08-21T17:43:44.329Z,27.46
2022-08-21T17:46:17.102Z,27.33
2022-08-21T17:48:47.271Z,27.40
2022-08-21T17:51:15.085Z,27.69
2022-08-21T17:53:42.001Z,27.43
2022-08-21T17:56:08.915Z,27.28
2022-08-21T17:58:37.005Z,27.24
2022-08-21T18:01:05.690Z,27.44
2022-08-21T18:03:38.499Z,27.82
2022-08-21T18:06:06.473Z,27.77
2022-08-21T18:08:34.061Z,28.11
2022-08-21T18:11:01.253Z,27.85
2022-08-21T18:13:32.987Z,28.16
2022-08-21T18:16:00.279Z,27.82
2022-08-21T18:18:32.601Z,28.07
2022-08-21T18:20:59.326Z,27.94
2022-08-21T18:23:43.442Z,28.26
2022-08-21T18:26:11.048Z,28.45
2022-08-21T18:28:38.494Z,28.56
2022-08-21T18:31:09.480Z,28.66
2022-08-21T18:33:37.821Z,28.81
2022-08-21T18:36:05.230Z,28.79
2022-08-21T18:38:31.894Z,29.24
2022-08-21T18:40:59.668Z,29.44
2022-08-21T18:43:26.944Z,29.47
2022-08-21T18:45:54.168Z,29.80
2022-08-21T18:48:21.052Z,29.78
2022-08-21T18:50:53.860Z,29.26
2022-08-21T18:53:27.434Z,29.48
2022-08-21T18:55:57.054Z,29.60
2022-08-21T18:58:31.629Z,29.49
2022-08-21T19:01:00.157Z,29.84
2022-08-21T19:03:27.068Z,29.76
2022-08-21T19:05:54.137Z,29.59
2022-08-21T19:08:22.979Z,29.44
2022-08-21T19:10:52.572Z,29.95
2022-08-21T19:13:21.286Z,30.37
2022-08-21T19:15:52.650Z,30.21
2022-08-21T19:18:28.322Z,30.64
2022-08-21T19:21:08.269Z,30.27
2022-08-21T19:23:35.546Z,30.45
2022-08-21T19:26:06.016Z,30.28
2022-08-21T19:28:38.621Z,30.01
2022-08-21T19:31:19.748Z,30.03
2022-08-21T19:33:58.970Z,30.34
2022-08-21T19:36:29.970Z,30.17
2022-08-21T19:38:56.869Z,30.26
2022-08-21T19:41:27.339Z,30.41
2022-08-21T19:43:57.844Z,30.14
2022-08-21T19:46:28.903Z,30.17
2022-08-21T19:48:57.080Z,30.30
2022-08-21T19:51:24.424Z,30.64
2022-08-21T19:53:55.822Z,31.73
2022-08-21T19:56:27.017Z,32.32
2022-08-21T19:58:55.698Z,31.75
2022-08-21T20:01:25.612Z,31.57
2022-08-21T20:03:54.159Z,31.77
2022-08-21T20:06:41.108Z,31.59
2022-08-21T20:09:10.406Z,31.48
2022-08-21T20:11:47.656Z,33.05
2022-08-21T20:14:17.576Z,33.41
2022-08-21T20:16:46.214Z,32.59
2022-08-21T20:19:13.164Z,32.24
2022-08-21T20:21:43.826Z,32.07
2022-08-21T20:24:14.654Z,32.18
2022-08-21T20:27:01.788Z,33.04
2022-08-21T20:29:34.934Z,34.90
2022-08-21T20:32:05.682Z,33.27
2022-08-21T20:34:33.180Z,32.94
2022-08-21T20:37:01.166Z,32.99
2022-08-21T20:39:28.272Z,34.35
2022-08-21T20:41:55.538Z,35.92
2022-08-21T20:44:22.561Z,36.89
2022-08-21T20:46:54.493Z,35.67
2022-08-21T20:49:27.793Z,34.93
2022-08-21T20:51:57.188Z,35.02
2022-08-21T20:54:41.994Z,35.75
2022-08-21T20:57:13.595Z,35.33
2022-08-21T21:00:01.790Z,34.60
2022-08-21T21:02:43.443Z,34.30
2022-08-21T21:05:33.155Z,34.13
2022-08-21T21:08:03.249Z,34.60
2022-08-21T21:10:41.380Z,35.05
2022-08-21T21:13:38.571Z,34.85
2022-08-21T21:16:15.827Z,35.13
2022-08-21T21:24:51.200Z,34.24
2022-08-21T21:27:29.526Z,34.10
2022-08-21T21:30:14.729Z,34.34
2022-08-21T21:32:42.781Z,34.67
2022-08-21T21:35:14.461Z,34.91
2022-08-21T21:37:58.604Z,36.04
2022-08-21T21:40:32.993Z,35.77
2022-08-21T21:43:00.475Z,35.93
2022-08-21T21:45:56.592Z,35.63
2022-08-21T21:48:37.675Z,35.63
2022-08-21T21:51:18.727Z,35.47
2022-08-21T21:53:58.521Z,35.45
2022-08-21T21:57:06.611Z,35.28
2022-08-21T21:59:40.237Z,35.20
2022-08-21T22:02:16.705Z,35.12
2022-08-21T22:05:04.444Z,35.01
2022-08-21T22:07:45.554Z,35.20
2022-08-21T22:10:19.743Z,35.21
2022-08-21T22:13:11.026Z,35.22
2022-08-21T22:15:38.209Z,34.86
2022-08-21T22:18:16.790Z,35.17
2022-08-21T22:20:52.913Z,35.26
2022-08-21T22:23:30.099Z,35.19
2022-08-21T22:26:04.485Z,35.15
2022-08-21T22:28:35.418Z,35.14
2022-08-21T22:31:22.382Z,34.80
2022-08-21T22:34:06.327Z,34.81
2022-08-21T22:36:37.164Z,34.98
2022-08-21T22:39:11.860Z,35.31
2022-08-21T22:41:43.476Z,35.45
2022-08-21T22:44:23.708Z,35.64
2022-08-21T22:47:00.893Z,35.77
2022-08-21T22:49:41.946Z,35.95
2022-08-21T22:52:24.424Z,35.83
2022-08-21T22:54:54.233Z,35.86
2022-08-21T22:57:32.164Z,35.80
2022-08-21T23:00:01.543Z,36.13
2022-08-21T23:02:38.931Z,36.18
2022-08-21T23:05:31.300Z,36.02
2022-08-21T23:08:34.270Z,36.33
2022-08-21T23:11:15.957Z,36.29
2022-08-21T23:13:46.289Z,36.42
2022-08-21T23:16:37.758Z,36.56
2022-08-21T23:19:34.450Z,36.92
2022-08-21T23:22:09.480Z,37.16
2022-08-21T23:24:49.826Z,37.03
2022-08-21T23:27:35.777Z,37.18
2022-08-21T23:30:12.297Z,37.12
2022-08-21T23:33:01.289Z,37.00
2022-08-21T23:36:04.109Z,37.01
2022-08-21T23:38:45.441Z,37.12
2022-08-21T23:41:56.802Z,37.09
2022-08-21T23:44:51.900Z,37.23
2022-08-21T23:47:27.287Z,37.15
2022-08-21T23:50:14.249Z,37.32
2022-08-21T23:53:09.031Z,37.38
2022-08-21T23:55:43.696Z,37.32
2022-08-21T23:58:30.862Z,36.99
